Pagrindinis puslapis
METAR-TAF:

METAR-TAF

Oro uostai :

Biak, Indonezija

platuma: 01-11S, ilguma: 136-07E, Aukštis: 11 m

Dabartinis oras

Ataskaita buvo paskelbta 3 valandos ir 47 minutes, ne 01:00 UTC
Vėjas 4 kt iš Vakarų/Pietvakarių
Temperatūra 27°C
Drėgmė 89%
Slėgis 1009 hPa
Matomumas: 9000 m
Išsisklaidę debesys ne aukštis 1800 ft
Apsiniaukę ne aukštis 10000 ft
lietus

METAR: WABB 290100Z 25004KT 9000 -RA SCT018 OVC100 27/25 Q1009 NOSIG

Laikas: 11:47 (04:47 UTC)

Prognozė

Ataskaita buvo paskelbta 5 valandos ir 47 minutes, ne 23:00 UTC
Prognozė galioja nuo 29 metu 00 UTC su 01 metu 06 UTC
Vėjas 8 kt iš Vakarų
Matomumas: 8000 m
Išsisklaidę debesys ne aukštis 1800 ft
lietus
Tapsmas
nuo 29 metu 03 UTC su 29 metu 05 UTC

TAF: WABB 282300Z 2900/0106 28008KT 8000 RA SCT018 BECMG 2903/2905 NSW

Orai ataskaitas ir orų prognozės (METAR, TAF).

turimą stotys yra geltonos ir raudonos taškus žemėlapyje.

Perkelti pele per norėdami pamatyti stoties vardą.

Tada spustelėkite, norėdami matyti oro stebėjimo ir prognozės.

Norėdami pakeisti žemėlapį: spustelėkite ant žalios mygtukų su juodo kryžiaus žemyn,; žalią mygtuką su brūkšneliu, jei norite nutolinti; arba žalių rodyklių gretimoms žemėlapius.


METAR-TAF: